Time;durP1;ratioP1;P1;durP2;ratioP2;P2;SDS_P1;SDS_P2;PMS_P1;PMS_P2;Temp;Humidity;BMP_temperature;BMP_pressure;BME280_temperature;BME280_humidity;BME280_pressure;Samples;Min_cycle;Max_cycle;Signal;HPM_P1;HPM_P2
2023/05/25 00:02:03;;;;;;;8.68;3.30;;;9.70;99.90;;;;;;4994097;28;20053;-41
2023/05/25 00:04:35;;;;;;;5.95;3.20;;;9.80;99.90;;;;;;5001540;28;20027;-42
2023/05/25 00:07:02;;;;;;;6.45;3.42;;;9.80;99.90;;;;;;4995181;28;20125;-42
2023/05/25 00:09:28;;;;;;;5.15;3.33;;;9.90;99.90;;;;;;5006211;28;20029;-41
2023/05/25 00:11:54;;;;;;;9.07;3.40;;;9.80;99.90;;;;;;4998242;28;20032;-42
2023/05/25 00:14:20;;;;;;;8.02;3.15;;;9.80;99.90;;;;;;5001778;28;20065;-41
2023/05/25 00:16:47;;;;;;;8.32;2.88;;;9.80;99.90;;;;;;4998170;28;20555;-42
2023/05/25 00:19:14;;;;;;;7.45;3.15;;;9.80;99.90;;;;;;5004032;28;20121;-42
2023/05/25 00:21:40;;;;;;;7.70;3.38;;;9.90;99.90;;;;;;5002655;28;20108;-42
2023/05/25 00:24:06;;;;;;;6.85;3.40;;;9.80;99.90;;;;;;4997921;28;20030;-41
2023/05/25 00:26:33;;;;;;;5.57;3.40;;;9.80;99.90;;;;;;4998493;28;20089;-41
2023/05/25 00:28:59;;;;;;;7.53;3.10;;;9.80;99.90;;;;;;5002009;28;20041;-42
2023/05/25 00:31:26;;;;;;;5.68;3.35;;;9.80;99.90;;;;;;4998168;28;20460;-41
2023/05/25 00:33:52;;;;;;;8.02;3.95;;;9.80;99.90;;;;;;5002075;28;20485;-42
2023/05/25 00:36:18;;;;;;;7.38;3.90;;;9.80;99.90;;;;;;4997585;28;20026;-42
2023/05/25 00:38:43;;;;;;;7.68;3.35;;;9.70;99.90;;;;;;5000616;28;20037;-42
2023/05/25 00:41:09;;;;;;;3.47;3.03;;;9.70;99.90;;;;;;5002935;28;20025;-42
2023/05/25 00:43:34;;;;;;;5.47;3.00;;;9.70;99.90;;;;;;4999017;28;20037;-42
2023/05/25 00:46:01;;;;;;;8.05;3.70;;;9.70;99.90;;;;;;5003444;28;20043;-42
2023/05/25 00:48:27;;;;;;;6.05;3.40;;;9.70;99.90;;;;;;4998400;28;20022;-42
2023/05/25 00:50:59;;;;;;;8.52;3.35;;;9.70;99.90;;;;;;4995865;28;20041;-41
2023/05/25 00:53:25;;;;;;;7.78;3.50;;;9.70;99.90;;;;;;5001206;28;20021;-41
2023/05/25 00:56:14;;;;;;;6.65;3.20;;;9.70;99.90;;;;;;5006038;28;20093;-42
2023/05/25 00:58:43;;;;;;;6.85;3.90;;;9.70;99.90;;;;;;4995942;28;20061;-42
2023/05/25 01:01:11;;;;;;;;;;;9.80;99.90;;;;;;4998527;28;20092;-42
2023/05/25 01:03:40;;;;;;;9.48;3.92;;;9.80;99.90;;;;;;4998699;28;19975;-42
2023/05/25 01:06:11;;;;;;;;;;;9.70;99.90;;;;;;5004132;28;20142;-42
2023/05/25 01:08:39;;;;;;;9.43;4.10;;;9.70;99.90;;;;;;5002958;28;20256;-41
2023/05/25 01:11:08;;;;;;;8.45;3.92;;;9.80;99.90;;;;;;5000196;28;20027;-41
2023/05/25 01:13:36;;;;;;;8.35;4.30;;;9.80;99.90;;;;;;4995934;28;20037;-41
2023/05/25 01:16:03;;;;;;;15.27;5.40;;;9.90;99.90;;;;;;4994996;28;20121;-42
2023/05/25 01:18:28;;;;;;;9.05;4.63;;;9.90;99.90;;;;;;5003692;28;20145;-41
2023/05/25 01:21:19;;;;;;;7.15;4.05;;;9.90;99.90;;;;;;4999835;28;20121;-42
2023/05/25 01:24:20;;;;;;;6.60;4.13;;;9.80;99.90;;;;;;4998611;28;20055;-41
2023/05/25 01:27:07;;;;;;;8.90;3.95;;;9.90;99.90;;;;;;4999628;28;20480;-42
2023/05/25 01:29:38;;;;;;;7.35;3.80;;;9.90;99.90;;;;;;5002363;28;20036;-41
2023/05/25 01:32:05;;;;;;;8.15;4.45;;;9.80;99.90;;;;;;5004595;28;20517;-41
2023/05/25 01:34:31;;;;;;;6.25;3.75;;;9.80;99.90;;;;;;4999898;28;20026;-42
2023/05/25 01:36:57;;;;;;;5.85;3.55;;;9.80;99.90;;;;;;5000690;28;20054;-40
2023/05/25 01:39:23;;;;;;;7.57;4.15;;;9.70;99.90;;;;;;5000632;28;20168;-41
2023/05/25 01:41:49;;;;;;;8.52;3.95;;;9.70;99.90;;;;;;5011071;28;20360;-41
2023/05/25 01:44:15;;;;;;;8.93;4.13;;;9.70;99.90;;;;;;5002600;28;20108;-41
2023/05/25 01:46:41;;;;;;;7.25;4.68;;;9.70;99.90;;;;;;5006644;28;20116;-41
2023/05/25 01:49:07;;;;;;;10.10;3.85;;;9.60;99.90;;;;;;5001207;28;20030;-41
2023/05/25 01:52:06;;;;;;;9.00;4.40;;;9.70;99.90;;;;;;5003983;28;20022;-41
2023/05/25 01:54:42;;;;;;;8.63;4.45;;;9.70;99.90;;;;;;5005117;28;20613;-41
2023/05/25 01:57:11;;;;;;;8.15;4.13;;;9.60;99.90;;;;;;5000128;28;20160;-41
2023/05/25 01:59:37;;;;;;;9.38;4.10;;;9.60;99.90;;;;;;5002323;28;20022;-41
2023/05/25 02:02:04;;;;;;;6.75;4.55;;;9.60;99.90;;;;;;5000255;28;20080;-41
2023/05/25 02:04:30;;;;;;;8.13;4.13;;;9.60;99.90;;;;;;5007738;28;20037;-41
2023/05/25 02:06:56;;;;;;;6.15;4.72;;;9.60;99.90;;;;;;5001341;28;20114;-41
2023/05/25 02:09:21;;;;;;;8.52;4.63;;;9.60;99.90;;;;;;5030104;28;20022;-41
2023/05/25 02:11:48;;;;;;;7.57;4.43;;;9.60;99.90;;;;;;5002135;28;20112;-41
2023/05/25 02:14:14;;;;;;;8.98;4.35;;;9.50;99.90;;;;;;5002188;28;20038;-41
2023/05/25 02:16:40;;;;;;;9.05;4.63;;;9.50;99.90;;;;;;5001430;28;20030;-42
2023/05/25 02:19:06;;;;;;;9.88;4.35;;;9.50;99.90;;;;;;5003348;28;20507;-41
2023/05/25 02:21:31;;;;;;;11.05;4.57;;;9.50;99.90;;;;;;5001885;28;20101;-41
2023/05/25 02:23:57;;;;;;;9.43;5.15;;;9.60;99.90;;;;;;5001131;28;20026;-41
2023/05/25 02:26:23;;;;;;;6.40;4.53;;;9.50;99.90;;;;;;5004075;28;20109;-41
2023/05/25 02:28:50;;;;;;;6.47;4.63;;;9.50;99.90;;;;;;5005011;28;20034;-41
2023/05/25 02:31:16;;;;;;;10.37;4.53;;;9.50;99.90;;;;;;5003628;28;20048;-41
2023/05/25 02:33:41;;;;;;;9.55;4.22;;;9.40;99.90;;;;;;4998666;28;20272;-42
2023/05/25 02:36:07;;;;;;;10.52;4.53;;;9.40;99.90;;;;;;4999908;28;20080;-41
2023/05/25 02:38:33;;;;;;;8.65;4.43;;;9.40;99.90;;;;;;5004205;28;20514;-42
2023/05/25 02:40:59;;;;;;;12.13;4.45;;;9.40;99.90;;;;;;5001982;28;20030;-41
2023/05/25 02:43:24;;;;;;;10.10;4.47;;;9.40;99.90;;;;;;5000385;28;20444;-41
2023/05/25 02:45:50;;;;;;;9.32;5.20;;;9.30;99.90;;;;;;5003244;28;20034;-41
2023/05/25 02:48:16;;;;;;;8.40;4.28;;;9.30;99.90;;;;;;5001467;28;20153;-42
2023/05/25 02:50:41;;;;;;;9.07;4.28;;;9.30;99.90;;;;;;4998348;28;20052;-42
2023/05/25 02:53:07;;;;;;;6.90;4.57;;;9.30;99.90;;;;;;5002969;28;20033;-41
2023/05/25 02:55:33;;;;;;;10.52;5.43;;;9.30;99.90;;;;;;5000693;28;20022;-41
2023/05/25 02:57:59;;;;;;;14.38;5.25;;;9.40;99.90;;;;;;5004276;28;20108;-41
2023/05/25 03:00:25;;;;;;;6.55;4.47;;;9.40;99.90;;;;;;4996545;28;20117;-41
2023/05/25 03:02:50;;;;;;;10.10;4.70;;;9.40;99.90;;;;;;4994362;28;20575;-41
2023/05/25 03:05:16;;;;;;;6.68;4.30;;;9.40;99.90;;;;;;5005708;28;20128;-41
2023/05/25 03:07:42;;;;;;;8.40;4.75;;;9.40;99.90;;;;;;5005756;28;20475;-41
2023/05/25 03:10:10;;;;;;;11.68;5.22;;;9.30;99.90;;;;;;5001961;28;20029;-41
2023/05/25 03:12:35;;;;;;;11.20;5.33;;;9.20;99.90;;;;;;4996057;28;20114;-42
2023/05/25 03:15:01;;;;;;;11.00;4.75;;;9.10;99.90;;;;;;5001401;28;20216;-41
2023/05/25 03:17:27;;;;;;;7.00;4.55;;;9.10;99.90;;;;;;5002332;28;20098;-41
2023/05/25 03:19:52;;;;;;;9.30;5.38;;;8.90;99.90;;;;;;5001290;28;20025;-41
2023/05/25 03:22:18;;;;;;;8.75;5.18;;;8.90;99.90;;;;;;5003976;28;20037;-41
2023/05/25 03:24:43;;;;;;;7.20;5.22;;;8.90;99.90;;;;;;5000644;28;21406;-41
2023/05/25 03:27:09;;;;;;;12.13;5.20;;;8.90;99.90;;;;;;4996763;28;20119;-41
2023/05/25 03:29:35;;;;;;;10.02;4.55;;;8.80;99.90;;;;;;5001536;28;20026;-41
2023/05/25 03:32:00;;;;;;;9.55;5.05;;;8.80;99.90;;;;;;4997650;28;20037;-41
2023/05/25 03:34:28;;;;;;;10.48;5.15;;;8.80;99.90;;;;;;5004937;28;20112;-41
2023/05/25 03:36:54;;;;;;;8.52;4.88;;;8.80;99.90;;;;;;4994182;28;20050;-41
2023/05/25 03:39:21;;;;;;;10.20;5.32;;;8.80;99.90;;;;;;4999736;28;20034;-42
2023/05/25 03:41:47;;;;;;;9.13;5.10;;;8.80;99.90;;;;;;4998826;28;20037;-41
2023/05/25 03:44:12;;;;;;;9.32;5.18;;;8.80;99.90;;;;;;5003335;28;20040;-42
2023/05/25 03:46:38;;;;;;;8.45;4.80;;;8.80;99.90;;;;;;4998444;28;20046;-41
2023/05/25 03:49:04;;;;;;;10.10;5.25;;;8.80;99.90;;;;;;4997134;28;20026;-41
2023/05/25 03:51:30;;;;;;;8.90;5.18;;;8.90;99.90;;;;;;5032183;28;20910;-41
2023/05/25 03:53:55;;;;;;;9.23;4.82;;;9.00;99.90;;;;;;5000721;28;20121;-41
2023/05/25 03:56:22;;;;;;;11.18;5.13;;;9.10;99.90;;;;;;4999325;28;20593;-41
2023/05/25 03:58:47;;;;;;;10.57;5.22;;;9.10;99.90;;;;;;4999507;28;20076;-42
2023/05/25 04:01:13;;;;;;;10.90;4.78;;;9.00;99.90;;;;;;4995441;28;20033;-42
2023/05/25 04:03:39;;;;;;;9.05;4.80;;;9.00;99.90;;;;;;5000100;28;20523;-41
2023/05/25 04:06:04;;;;;;;11.38;5.13;;;9.00;99.90;;;;;;5003586;28;20030;-41
2023/05/25 04:08:30;;;;;;;8.00;5.03;;;9.00;99.90;;;;;;5001671;28;20043;-41
2023/05/25 04:10:56;;;;;;;9.63;4.93;;;9.00;99.90;;;;;;5001984;28;20399;-41
2023/05/25 04:13:21;;;;;;;12.27;4.93;;;9.10;99.90;;;;;;4996456;28;20033;-41
2023/05/25 04:15:48;;;;;;;13.10;5.20;;;9.10;99.90;;;;;;4994722;28;20034;-42
2023/05/25 04:18:14;;;;;;;10.95;5.53;;;9.20;99.90;;;;;;4998146;28;20034;-41
2023/05/25 04:20:39;;;;;;;8.85;5.20;;;9.20;99.90;;;;;;4999450;28;20056;-42
2023/05/25 04:23:05;;;;;;;10.10;5.07;;;9.30;99.90;;;;;;4995811;28;20527;-42
2023/05/25 04:25:31;;;;;;;13.43;5.38;;;9.40;99.90;;;;;;4998333;28;20036;-41
2023/05/25 04:27:56;;;;;;;12.60;5.57;;;9.40;99.90;;;;;;4998106;28;20026;-42
2023/05/25 04:30:22;;;;;;;13.13;5.40;;;9.40;99.90;;;;;;5004070;28;20475;-42
2023/05/25 04:32:49;;;;;;;13.25;6.15;;;9.50;99.90;;;;;;4997610;28;20026;-41
2023/05/25 04:35:15;;;;;;;11.70;5.20;;;9.60;99.90;;;;;;5001442;28;20076;-42
2023/05/25 04:37:41;;;;;;;7.50;5.10;;;9.60;99.90;;;;;;4998636;28;20036;-41
2023/05/25 04:40:12;;;;;;;12.43;6.00;;;9.60;99.90;;;;;;5000198;28;20450;-41
2023/05/25 04:42:41;;;;;;;9.52;5.80;;;9.70;99.90;;;;;;5004488;28;20026;-41
2023/05/25 04:45:10;;;;;;;12.93;5.85;;;9.70;99.90;;;;;;4998866;28;20034;-42
2023/05/25 04:47:39;;;;;;;9.82;5.70;;;9.80;99.90;;;;;;4995764;28;20034;-42
2023/05/25 04:50:07;;;;;;;10.90;6.18;;;9.80;99.90;;;;;;5004789;28;20025;-42
2023/05/25 04:52:32;;;;;;;12.68;5.93;;;9.90;99.90;;;;;;4993334;28;20045;-42
2023/05/25 04:54:59;;;;;;;10.80;6.40;;;10.00;99.90;;;;;;4997800;28;20511;-41
2023/05/25 04:57:27;;;;;;;12.98;6.10;;;10.00;99.90;;;;;;5003687;28;20025;-41
2023/05/25 04:59:53;;;;;;;11.07;6.55;;;10.00;99.90;;;;;;5005075;28;20036;-42
2023/05/25 05:02:19;;;;;;;11.60;6.07;;;10.10;99.90;;;;;;5001987;28;20042;-41
2023/05/25 05:04:44;;;;;;;10.32;6.28;;;10.10;99.90;;;;;;5004519;28;20409;-42
2023/05/25 05:07:10;;;;;;;15.80;6.45;;;10.20;99.90;;;;;;5006749;28;20119;-42
2023/05/25 05:09:36;;;;;;;9.93;5.82;;;10.20;99.90;;;;;;5004240;28;20026;-41
2023/05/25 05:12:02;;;;;;;11.07;5.95;;;10.30;99.90;;;;;;5007560;28;20033;-45
2023/05/25 05:14:28;;;;;;;12.77;6.22;;;10.30;99.90;;;;;;5006848;28;20494;-41
2023/05/25 05:16:54;;;;;;;14.52;6.97;;;10.50;99.90;;;;;;5005519;28;20434;-41
2023/05/25 05:19:19;;;;;;;11.95;7.05;;;10.50;99.90;;;;;;5011321;28;20030;-41
2023/05/25 05:21:45;;;;;;;11.32;5.97;;;10.60;99.90;;;;;;4999460;28;20563;-41
2023/05/25 05:24:11;;;;;;;14.80;6.68;;;10.70;99.90;;;;;;5006298;28;20072;-41
2023/05/25 05:26:38;;;;;;;12.80;6.40;;;10.80;99.90;;;;;;5001167;28;20018;-41
2023/05/25 05:29:04;;;;;;;11.85;7.07;;;10.90;99.90;;;;;;5007022;28;20072;-41
2023/05/25 05:31:30;;;;;;;15.68;6.60;;;10.90;99.90;;;;;;5001257;28;20137;-41
2023/05/25 05:33:56;;;;;;;9.48;6.75;;;11.00;99.90;;;;;;5004544;28;20089;-41
2023/05/25 05:36:22;;;;;;;13.68;7.05;;;11.00;99.90;;;;;;4998952;28;20803;-41
2023/05/25 05:38:47;;;;;;;13.57;6.60;;;11.10;99.90;;;;;;4998808;28;20049;-42
2023/05/25 05:41:13;;;;;;;12.10;6.20;;;11.10;99.90;;;;;;5009364;28;20481;-41
2023/05/25 05:43:41;;;;;;;15.00;7.50;;;11.20;99.90;;;;;;5002927;28;20042;-41
2023/05/25 05:46:08;;;;;;;15.67;6.77;;;11.30;99.90;;;;;;5007307;28;20122;-41
2023/05/25 05:48:34;;;;;;;16.30;8.00;;;11.40;99.90;;;;;;5006030;28;20026;-41
2023/05/25 05:50:59;;;;;;;11.15;6.72;;;11.40;99.90;;;;;;4999335;28;20021;-41
2023/05/25 05:53:25;;;;;;;12.55;6.68;;;11.50;99.90;;;;;;5008101;28;20030;-41
2023/05/25 05:55:53;;;;;;;13.15;7.50;;;11.50;99.90;;;;;;5005092;28;20030;-42
2023/05/25 05:58:18;;;;;;;14.20;6.65;;;11.50;99.90;;;;;;5007032;28;20091;-41
2023/05/25 06:00:44;;;;;;;13.80;7.15;;;11.60;99.90;;;;;;5005486;28;20038;-41
2023/05/25 06:03:09;;;;;;;11.50;7.13;;;11.70;99.90;;;;;;5000183;28;20046;-41
2023/05/25 06:05:35;;;;;;;12.73;6.65;;;11.70;99.90;;;;;;5006245;28;20070;-41
2023/05/25 06:08:02;;;;;;;13.25;7.00;;;11.80;99.90;;;;;;5001339;28;20032;-41
2023/05/25 06:10:27;;;;;;;16.15;7.45;;;11.90;99.90;;;;;;4999685;28;20042;-41
2023/05/25 06:12:53;;;;;;;16.00;7.03;;;11.90;99.90;;;;;;4994880;28;20042;-41
2023/05/25 06:15:18;;;;;;;8.80;6.50;;;12.00;99.90;;;;;;4997793;28;20054;-41
2023/05/25 06:17:45;;;;;;;19.45;7.60;;;12.00;99.90;;;;;;5000727;28;20045;-41
2023/05/25 06:20:10;;;;;;;12.50;6.53;;;12.10;99.90;;;;;;4998685;28;20026;-41
2023/05/25 06:22:36;;;;;;;14.63;7.10;;;12.20;99.90;;;;;;5007534;28;20402;-41
2023/05/25 06:25:01;;;;;;;15.25;7.30;;;12.20;99.90;;;;;;4997476;28;20034;-42
2023/05/25 06:27:27;;;;;;;14.40;6.88;;;12.30;99.90;;;;;;5001691;28;20359;-41
2023/05/25 06:29:53;;;;;;;10.07;6.53;;;12.30;99.90;;;;;;4997326;28;20027;-41
2023/05/25 06:32:18;;;;;;;11.02;6.50;;;12.30;99.90;;;;;;5001015;28;20057;-41
2023/05/25 06:34:44;;;;;;;12.57;7.43;;;12.30;99.90;;;;;;5001005;28;20377;-41
2023/05/25 06:37:09;;;;;;;12.68;7.30;;;12.30;99.90;;;;;;4999435;28;20488;-41
2023/05/25 06:39:35;;;;;;;8.98;6.03;;;12.40;99.90;;;;;;4998300;28;20446;-41
2023/05/25 06:42:00;;;;;;;14.23;7.13;;;12.40;99.90;;;;;;5001849;28;20022;-41
2023/05/25 06:44:26;;;;;;;14.45;7.03;;;12.60;99.90;;;;;;4999392;28;20112;-41
2023/05/25 06:46:52;;;;;;;14.02;6.95;;;12.50;99.90;;;;;;4997872;28;20089;-41
2023/05/25 06:49:17;;;;;;;15.25;7.95;;;12.60;99.90;;;;;;5031761;28;20097;-41
2023/05/25 06:51:43;;;;;;;11.88;7.15;;;12.70;99.90;;;;;;5004990;28;20080;-41
2023/05/25 06:54:09;;;;;;;13.95;7.68;;;12.60;99.90;;;;;;5006744;28;20022;-41
2023/05/25 06:56:34;;;;;;;11.48;7.13;;;12.80;99.90;;;;;;5003826;28;20030;-41
2023/05/25 06:59:00;;;;;;;10.05;6.78;;;12.80;99.90;;;;;;4998362;28;20100;-41
2023/05/25 07:01:25;;;;;;;15.68;8.13;;;12.80;99.90;;;;;;4997178;28;20045;-40
2023/05/25 07:03:51;;;;;;;13.20;7.80;;;12.80;99.90;;;;;;5001021;28;20029;-41
2023/05/25 07:06:17;;;;;;;12.80;7.35;;;12.80;99.90;;;;;;5004834;28;20037;-41
2023/05/25 07:08:42;;;;;;;13.68;8.40;;;12.90;99.90;;;;;;5001955;28;20034;-41
2023/05/25 07:11:11;;;;;;;11.73;6.93;;;12.80;99.90;;;;;;4999809;28;20387;-41
2023/05/25 07:13:36;;;;;;;17.48;8.18;;;12.80;99.90;;;;;;4997403;28;20024;-42
2023/05/25 07:16:02;;;;;;;13.02;7.15;;;12.90;99.90;;;;;;4996066;28;20034;-41
2023/05/25 07:18:27;;;;;;;10.55;7.05;;;12.90;99.90;;;;;;4994419;28;20053;-41
2023/05/25 07:20:53;;;;;;;13.18;8.10;;;13.00;99.90;;;;;;4996178;28;20399;-41
2023/05/25 07:23:19;;;;;;;13.02;7.03;;;13.20;99.90;;;;;;4996162;28;20034;-41
2023/05/25 07:25:44;;;;;;;14.57;7.65;;;13.30;99.90;;;;;;4996473;28;20030;-41
2023/05/25 07:28:10;;;;;;;13.13;7.50;;;13.40;99.90;;;;;;4995090;28;20026;-41
2023/05/25 07:30:35;;;;;;;14.13;8.43;;;13.30;99.90;;;;;;4996154;28;20059;-41
2023/05/25 07:33:01;;;;;;;11.13;7.35;;;13.20;99.90;;;;;;4996125;28;20034;-41
2023/05/25 07:35:27;;;;;;;19.15;7.45;;;13.20;99.90;;;;;;5007048;28;20030;-41
2023/05/25 07:38:00;;;;;;;12.95;7.40;;;13.30;99.90;;;;;;4998450;28;20030;-41
2023/05/25 07:40:26;;;;;;;10.00;7.18;;;13.30;99.90;;;;;;5008467;28;20046;-41
2023/05/25 07:42:52;;;;;;;16.50;8.63;;;13.40;99.90;;;;;;4998243;28;20030;-41
2023/05/25 07:45:18;;;;;;;13.90;7.20;;;13.50;99.90;;;;;;4997761;28;20034;-41
2023/05/25 07:47:44;;;;;;;12.93;8.05;;;13.40;99.90;;;;;;4997274;28;20037;-41
2023/05/25 07:50:10;;;;;;;13.52;7.68;;;13.40;99.90;;;;;;4996042;28;20034;-41
2023/05/25 07:52:37;;;;;;;14.30;8.32;;;13.60;99.90;;;;;;5003850;28;20022;-42
2023/05/25 07:55:03;;;;;;;15.88;7.78;;;13.60;99.90;;;;;;5003103;28;20037;-41
2023/05/25 07:57:28;;;;;;;14.20;8.23;;;13.60;99.90;;;;;;4997698;28;20037;-42
2023/05/25 07:59:54;;;;;;;14.10;8.57;;;13.70;99.90;;;;;;4997981;28;20027;-41
2023/05/25 08:02:20;;;;;;;15.90;8.40;;;13.70;99.90;;;;;;4999654;28;20041;-42
2023/05/25 08:04:45;;;;;;;12.93;8.27;;;13.60;99.90;;;;;;4998376;28;20034;-41
2023/05/25 08:07:11;;;;;;;13.02;8.95;;;13.60;99.90;;;;;;4998350;28;20033;-41
2023/05/25 08:09:37;;;;;;;17.95;8.23;;;13.60;99.90;;;;;;4994820;28;20022;-41
2023/05/25 08:12:03;;;;;;;13.90;7.45;;;13.70;99.90;;;;;;4999595;28;20022;-41
2023/05/25 08:14:28;;;;;;;14.10;8.80;;;13.70;99.90;;;;;;5010186;28;20031;-42
2023/05/25 08:16:54;;;;;;;12.02;8.20;;;13.80;99.90;;;;;;4998990;28;20425;-41
2023/05/25 08:19:19;;;;;;;13.88;7.30;;;13.80;99.90;;;;;;5000751;28;20041;-42
2023/05/25 08:21:45;;;;;;;12.73;7.72;;;13.90;99.90;;;;;;4996644;28;20030;-41
2023/05/25 08:24:11;;;;;;;14.88;7.10;;;13.90;99.90;;;;;;4994810;28;20022;-41
2023/05/25 08:26:37;;;;;;;12.23;7.75;;;14.00;99.90;;;;;;4996441;28;20038;-41
2023/05/25 08:29:03;;;;;;;9.63;6.88;;;14.20;99.90;;;;;;4999709;28;20033;-41
2023/05/25 08:31:31;;;;;;;14.30;8.30;;;14.30;99.90;;;;;;5001234;28;20435;-41
2023/05/25 08:33:56;;;;;;;19.50;7.47;;;14.30;99.90;;;;;;4998358;28;20035;-41
2023/05/25 08:36:23;;;;;;;13.52;8.93;;;14.20;99.90;;;;;;5000027;28;20048;-41
2023/05/25 08:38:49;;;;;;;14.02;7.88;;;14.40;99.90;;;;;;4994112;28;20030;-41
2023/05/25 08:41:15;;;;;;;13.45;7.82;;;14.30;99.90;;;;;;5000528;28;20372;-41
2023/05/25 08:43:41;;;;;;;14.70;7.70;;;14.30;99.90;;;;;;4994849;28;20034;-41
2023/05/25 08:46:08;;;;;;;16.48;8.38;;;14.40;99.90;;;;;;4999904;28;20088;-41
2023/05/25 08:48:35;;;;;;;12.38;8.25;;;14.40;99.90;;;;;;4994823;28;20328;-42
2023/05/25 08:51:12;;;;;;;13.50;8.50;;;14.40;99.90;;;;;;4997745;28;20117;-41
2023/05/25 08:53:39;;;;;;;13.15;7.40;;;14.30;99.90;;;;;;4996903;28;20030;-41
2023/05/25 08:56:25;;;;;;;11.85;7.43;;;14.40;99.90;;;;;;4998393;28;20025;-41
2023/05/25 08:59:10;;;;;;;11.40;7.55;;;14.50;99.90;;;;;;4997198;28;20033;-41
2023/05/25 09:01:44;;;;;;;10.52;6.75;;;14.80;99.90;;;;;;4992999;28;20054;-41
2023/05/25 09:04:13;;;;;;;11.00;7.35;;;14.80;99.90;;;;;;4997602;28;20141;-41
2023/05/25 09:06:39;;;;;;;12.48;7.07;;;14.90;99.90;;;;;;4994078;28;20054;-42
2023/05/25 09:09:04;;;;;;;12.73;7.68;;;14.80;99.90;;;;;;5000197;28;20392;-42
2023/05/25 09:11:31;;;;;;;12.13;7.20;;;14.90;99.90;;;;;;4997986;28;20399;-42
2023/05/25 09:13:57;;;;;;;10.88;7.05;;;15.00;99.90;;;;;;4997579;28;20065;-42
2023/05/25 09:16:25;;;;;;;8.98;5.70;;;15.20;99.90;;;;;;4999791;28;20033;-41
2023/05/25 09:18:50;;;;;;;9.57;6.32;;;15.30;99.90;;;;;;4997787;28;20427;-41
2023/05/25 09:21:16;;;;;;;10.57;6.63;;;15.40;99.90;;;;;;4996369;28;20096;-41
2023/05/25 09:23:41;;;;;;;16.05;6.40;;;15.50;99.90;;;;;;5000667;28;20042;-41
2023/05/25 09:26:07;;;;;;;8.73;5.70;;;15.60;99.90;;;;;;4994024;28;20026;-41
2023/05/25 09:28:33;;;;;;;10.85;6.38;;;15.80;99.90;;;;;;4996926;28;20026;-41
2023/05/25 09:30:59;;;;;;;8.52;6.00;;;15.90;99.90;;;;;;4993887;28;20037;-41
2023/05/25 09:33:25;;;;;;;12.77;6.80;;;16.10;99.90;;;;;;4998047;28;20034;-41
2023/05/25 09:35:51;;;;;;;12.00;6.68;;;16.10;99.90;;;;;;4992847;28;20038;-41
2023/05/25 09:38:17;;;;;;;10.23;6.30;;;16.00;99.90;;;;;;5000425;28;20084;-41
2023/05/25 09:40:43;;;;;;;10.48;6.25;;;15.90;99.90;;;;;;4996124;28;20109;-41
2023/05/25 09:43:11;;;;;;;10.75;5.93;;;15.90;99.90;;;;;;4999145;28;20104;-41
2023/05/25 09:45:37;;;;;;;10.23;6.18;;;16.00;99.90;;;;;;5000471;28;20812;-41
2023/05/25 09:48:05;;;;;;;11.77;6.32;;;15.90;99.90;;;;;;5001400;28;20037;-41
2023/05/25 09:50:31;;;;;;;9.80;6.53;;;16.00;99.90;;;;;;5000977;28;20030;-42
2023/05/25 09:53:01;;;;;;;10.32;7.63;;;16.00;99.90;;;;;;5001686;28;21573;-41
2023/05/25 09:55:27;;;;;;;8.63;6.30;;;16.10;99.90;;;;;;5004062;28;21703;-41
2023/05/25 09:57:54;;;;;;;9.43;6.47;;;16.00;99.90;;;;;;5001897;28;20033;-42
2023/05/25 10:00:21;;;;;;;11.07;6.95;;;16.00;99.90;;;;;;5002126;28;20069;-41
2023/05/25 10:02:47;;;;;;;11.52;6.40;;;16.00;99.90;;;;;;5003719;28;20399;-41
2023/05/25 10:05:12;;;;;;;9.45;5.93;;;16.00;99.90;;;;;;5001913;28;20046;-42
2023/05/25 10:07:39;;;;;;;10.73;6.60;;;16.00;99.90;;;;;;5003663;28;20037;-42
2023/05/25 10:10:08;;;;;;;12.15;6.80;;;16.10;99.90;;;;;;5004425;28;20026;-41
2023/05/25 10:12:35;;;;;;;7.20;5.68;;;16.10;99.90;;;;;;5003862;28;20030;-41
2023/05/25 10:15:05;;;;;;;11.88;6.43;;;16.30;99.90;;;;;;5003224;28;20030;-41
2023/05/25 10:17:33;;;;;;;11.85;6.45;;;16.40;99.90;;;;;;5002047;28;20102;-41
2023/05/25 10:19:59;;;;;;;8.38;5.80;;;16.30;99.90;;;;;;5003816;28;20116;-41
2023/05/25 10:22:35;;;;;;;8.75;6.80;;;16.40;99.90;;;;;;4999471;28;20037;-41
2023/05/25 10:25:04;;;;;;;9.50;5.70;;;16.50;99.90;;;;;;4998112;28;20415;-41
2023/05/25 10:27:37;;;;;;;9.65;5.93;;;16.40;99.90;;;;;;5000556;28;20042;-41
2023/05/25 10:30:04;;;;;;;12.88;6.85;;;16.50;99.90;;;;;;4995417;28;20041;-41
2023/05/25 10:32:30;;;;;;;9.63;6.07;;;16.70;99.90;;;;;;5001707;28;20034;-41
2023/05/25 10:34:56;;;;;;;9.30;6.45;;;16.90;99.90;;;;;;5002597;28;20557;-41
2023/05/25 10:37:24;;;;;;;9.73;6.10;;;17.00;99.90;;;;;;4996892;28;20029;-41
2023/05/25 10:39:51;;;;;;;;;;;17.00;99.90;;;;;;5003556;28;20034;-41
2023/05/25 10:42:17;;;;;;;10.55;6.70;;;17.00;99.90;;;;;;5002682;28;19917;-41
2023/05/25 10:44:44;;;;;;;9.13;5.95;;;17.00;99.90;;;;;;5001909;28;20041;-41
2023/05/25 10:47:11;;;;;;;9.27;6.30;;;16.90;99.90;;;;;;5002558;28;20060;-41
2023/05/25 10:49:54;;;;;;;7.72;5.60;;;17.00;99.90;;;;;;5001958;28;20393;-41
2023/05/25 10:52:20;;;;;;;8.90;5.88;;;17.30;99.90;;;;;;5005820;28;20022;-41
2023/05/25 10:54:47;;;;;;;8.02;5.85;;;17.30;99.90;;;;;;5001322;28;20092;-41
2023/05/25 10:57:20;;;;;;;11.95;6.22;;;17.40;99.90;;;;;;5002521;28;20115;-41
2023/05/25 10:59:58;;;;;;;9.50;6.68;;;17.50;99.90;;;;;;5029826;28;20038;-41
2023/05/25 11:02:27;;;;;;;7.22;5.60;;;17.60;99.90;;;;;;5001466;28;20710;-41
2023/05/25 11:05:29;;;;;;;9.65;6.18;;;17.50;99.90;;;;;;5002523;28;20115;-41
2023/05/25 11:08:00;;;;;;;11.38;6.70;;;17.40;99.90;;;;;;4997838;28;20057;-41
2023/05/25 11:10:43;;;;;;;10.05;6.28;;;17.40;99.90;;;;;;5031970;28;20038;-41
2023/05/25 11:13:32;;;;;;;10.52;6.70;;;17.40;99.90;;;;;;4998232;28;20022;-43
2023/05/25 11:16:34;;;;;;;9.70;5.82;;;18.00;99.90;;;;;;5001314;28;20072;-42
2023/05/25 11:19:01;;;;;;;7.88;5.90;;;18.00;99.90;;;;;;5000166;28;20041;-43
2023/05/25 11:21:28;;;;;;;11.32;6.50;;;18.00;99.90;;;;;;4998711;28;20060;-43
2023/05/25 11:24:01;;;;;;;9.23;5.68;;;18.10;99.90;;;;;;5003307;28;20034;-43
2023/05/25 11:26:32;;;;;;;10.15;6.75;;;18.20;99.90;;;;;;5004928;28;20045;-43
2023/05/25 11:28:59;;;;;;;8.77;6.68;;;18.60;99.90;;;;;;5004466;28;21544;-41
2023/05/25 11:31:31;;;;;;;7.57;6.10;;;18.50;99.90;;;;;;4997120;28;20518;-31
2023/05/25 11:33:59;;;;;;;11.90;6.30;;;18.50;99.90;;;;;;4998741;28;20052;-31
2023/05/25 11:36:26;;;;;;;8.82;5.97;;;18.40;99.90;;;;;;4997341;28;20030;-32
2023/05/25 11:38:52;;;;;;;9.75;6.68;;;18.10;99.90;;;;;;4996317;28;20034;-32
2023/05/25 11:41:22;;;;;;;8.52;6.10;;;18.00;99.90;;;;;;5004969;28;20029;-32
2023/05/25 11:43:48;;;;;;;7.78;6.45;;;18.10;99.90;;;;;;4995771;28;20027;-32
2023/05/25 11:46:15;;;;;;;9.90;6.75;;;18.00;99.90;;;;;;4998992;28;20824;-33
2023/05/25 11:48:45;;;;;;;9.95;6.28;;;18.00;99.90;;;;;;4999452;28;20100;-33
2023/05/25 11:51:11;;;;;;;9.13;5.80;;;18.10;99.90;;;;;;5001767;28;20053;-33
2023/05/25 11:53:44;;;;;;;9.75;6.50;;;18.20;99.90;;;;;;5001889;28;20108;-32
2023/05/25 11:56:14;;;;;;;10.32;5.85;;;18.20;99.90;;;;;;5002954;28;20116;-31
2023/05/25 11:58:40;;;;;;;9.52;5.85;;;18.10;99.90;;;;;;4998396;28;20164;-31
2023/05/25 12:01:15;;;;;;;7.93;5.43;;;18.00;99.90;;;;;;4992755;28;20026;-32
2023/05/25 12:03:42;;;;;;;10.70;5.97;;;17.90;99.90;;;;;;5004942;28;20188;-32
2023/05/25 12:06:07;;;;;;;8.45;6.05;;;17.80;99.90;;;;;;4995189;28;20042;-31
2023/05/25 12:08:34;;;;;;;12.90;6.95;;;17.90;99.90;;;;;;5002356;28;20049;-32
2023/05/25 12:11:03;;;;;;;7.43;5.40;;;18.10;99.90;;;;;;4998071;28;20033;-33
2023/05/25 12:13:30;;;;;;;10.52;5.95;;;18.90;99.90;;;;;;4995830;28;20037;-32
2023/05/25 12:15:56;;;;;;;6.97;5.68;;;19.50;99.90;;;;;;4998677;28;20430;-31
2023/05/25 12:18:22;;;;;;;8.75;6.00;;;19.50;99.90;;;;;;4994265;28;20117;-31
2023/05/25 12:20:50;;;;;;;11.63;5.75;;;19.80;99.90;;;;;;5002945;28;20045;-32
2023/05/25 12:23:15;;;;;;;8.40;6.07;;;20.00;99.90;;;;;;4998776;28;20112;-32
2023/05/25 12:25:41;;;;;;;10.50;6.38;;;20.20;99.90;;;;;;4997248;28;20160;-32
2023/05/25 12:28:14;;;;;;;8.13;6.47;;;20.40;99.90;;;;;;5001990;28;20033;-32
2023/05/25 12:30:40;;;;;;;6.25;5.40;;;19.80;99.90;;;;;;4999374;28;20026;-32
2023/05/25 12:33:06;;;;;;;9.32;5.18;;;19.30;99.90;;;;;;4997022;28;20038;-32
2023/05/25 12:35:45;;;;;;;8.15;6.82;;;19.20;99.90;;;;;;5000105;28;20045;-32
2023/05/25 12:38:18;;;;;;;11.35;6.28;;;19.40;99.90;;;;;;4997905;28;20476;-31
2023/05/25 12:40:44;;;;;;;8.93;5.78;;;19.10;99.90;;;;;;4998635;28;20036;-32
2023/05/25 12:43:10;;;;;;;8.57;5.68;;;19.20;99.90;;;;;;4999546;28;20488;-32
2023/05/25 12:45:42;;;;;;;9.27;5.55;;;19.10;99.90;;;;;;4995845;28;20042;-32
2023/05/25 12:48:08;;;;;;;8.45;5.32;;;19.00;99.90;;;;;;4995761;28;20023;-32